createdAt,value
2022-12-14T00:03:59.068Z,102.77
2022-12-14T00:09:04.646Z,99.83
2022-12-14T00:14:07.659Z,95.03
2022-12-14T00:19:11.639Z,106.67
2022-12-14T00:24:16.710Z,94.27
2022-12-14T00:29:19.800Z,85.97
2022-12-14T00:34:22.171Z,74.30
2022-12-14T00:39:24.579Z,71.07
2022-12-14T00:44:26.938Z,55.33
2022-12-14T00:49:29.313Z,52.10
2022-12-14T00:54:31.708Z,55.57
2022-12-14T00:59:34.112Z,50.40
2022-12-14T01:04:36.602Z,49.07
2022-12-14T01:09:39.101Z,46.27
2022-12-14T01:14:41.773Z,46.50
2022-12-14T01:19:44.205Z,46.90
2022-12-14T01:24:51.502Z,47.47
2022-12-14T01:29:54.136Z,45.40
2022-12-14T01:34:56.564Z,47.87
2022-12-14T01:39:58.928Z,49.00
2022-12-14T01:45:01.905Z,47.90
2022-12-14T01:50:27.954Z,47.97
2022-12-14T01:55:39.760Z,48.97
2022-12-14T02:00:43.842Z,50.17
2022-12-14T02:06:03.731Z,54.87
2022-12-14T02:11:06.295Z,55.67
2022-12-14T02:16:11.183Z,51.77
2022-12-14T02:21:19.069Z,51.57
2022-12-14T02:26:40.237Z,48.33
2022-12-14T02:31:46.443Z,58.40
2022-12-14T02:37:18.405Z,60.07
2022-12-14T02:42:52.155Z,52.77
2022-12-14T02:48:23.308Z,46.00
2022-12-14T02:53:34.191Z,42.27
2022-12-14T02:58:44.160Z,35.57
2022-12-14T03:03:46.553Z,37.20
2022-12-14T03:08:49.064Z,34.77
2022-12-14T03:14:01.387Z,34.77
2022-12-14T03:19:27.253Z,33.80
2022-12-14T03:24:37.097Z,34.90
2022-12-14T03:29:46.020Z,34.33
2022-12-14T03:35:01.332Z,35.67
2022-12-14T03:40:07.991Z,35.83
2022-12-14T03:45:23.599Z,33.70
2022-12-14T03:50:41.559Z,35.20
2022-12-14T03:55:43.895Z,33.33
2022-12-14T04:01:22.991Z,35.40
2022-12-14T04:06:45.016Z,34.47
2022-12-14T04:12:12.616Z,36.40
2022-12-14T04:17:40.316Z,36.77
2022-12-14T04:22:48.776Z,35.37
2022-12-14T04:28:00.732Z,37.23
2022-12-14T04:33:27.625Z,36.60
2022-12-14T04:38:36.283Z,35.23
2022-12-14T04:43:49.004Z,36.20
2022-12-14T04:49:15.350Z,35.63
2022-12-14T04:54:37.749Z,37.70
2022-12-14T04:59:40.410Z,36.20
2022-12-14T05:05:16.269Z,35.13
2022-12-14T05:10:21.864Z,37.10
2022-12-14T05:15:30.140Z,35.37
2022-12-14T05:20:32.576Z,36.73
2022-12-14T05:25:35.088Z,39.83
2022-12-14T05:30:37.505Z,40.17
2022-12-14T05:35:39.927Z,48.23
2022-12-14T05:40:42.307Z,47.87
2022-12-14T05:45:44.677Z,44.17
2022-12-14T05:50:47.065Z,44.67
2022-12-14T05:55:51.313Z,40.63
2022-12-14T06:00:53.706Z,36.77
2022-12-14T06:06:02.637Z,36.43
2022-12-14T06:11:16.551Z,36.53
2022-12-14T06:16:24.562Z,38.47
2022-12-14T06:21:33.392Z,37.40
2022-12-14T06:26:37.007Z,39.43
2022-12-14T06:31:39.462Z,38.80
2022-12-14T06:36:42.950Z,38.63
2022-12-14T06:41:50.785Z,44.67
2022-12-14T06:46:53.171Z,45.30
2022-12-14T06:51:55.792Z,52.93
2022-12-14T06:56:58.224Z,48.20
2022-12-14T07:02:00.744Z,46.97
2022-12-14T07:07:03.219Z,47.03
2022-12-14T07:12:05.789Z,41.87
2022-12-14T07:17:08.143Z,34.07
2022-12-14T07:22:10.474Z,28.77
2022-12-14T07:27:13.040Z,27.70
2022-12-14T07:32:15.419Z,34.10
2022-12-14T07:37:17.964Z,31.83
2022-12-14T07:42:20.350Z,33.37
2022-12-14T07:47:22.850Z,30.93
2022-12-14T07:52:25.278Z,33.77
2022-12-14T07:57:27.624Z,33.40
2022-12-14T08:02:30.133Z,34.03
2022-12-14T08:07:35.153Z,32.97
2022-12-14T08:12:37.815Z,35.50
2022-12-14T08:17:40.289Z,32.63
2022-12-14T08:22:42.735Z,34.73
2022-12-14T08:27:46.313Z,35.17
2022-12-14T08:32:48.851Z,34.37
2022-12-14T08:37:52.796Z,34.80
2022-12-14T08:42:55.236Z,36.57
2022-12-14T08:47:58.570Z,34.87
2022-12-14T08:53:01.082Z,47.07
2022-12-14T08:58:03.641Z,37.97
2022-12-14T09:03:06.814Z,40.30
2022-12-14T09:08:09.376Z,37.03
2022-12-14T09:13:11.837Z,36.47
2022-12-14T09:18:14.269Z,35.50
2022-12-14T09:23:16.657Z,41.13
2022-12-14T09:28:19.057Z,39.10
2022-12-14T09:33:21.471Z,44.00
2022-12-14T09:38:23.900Z,38.30
2022-12-14T09:43:37.945Z,37.93
2022-12-14T09:48:43.125Z,40.73
2022-12-14T09:53:48.192Z,48.97
2022-12-14T09:58:57.202Z,36.63
2022-12-14T10:04:08.725Z,36.37
2022-12-14T10:09:28.266Z,36.37
2022-12-14T10:14:58.419Z,36.33
2022-12-14T10:20:24.339Z,33.97
2022-12-14T10:25:29.543Z,33.97
2022-12-14T10:30:32.917Z,36.20
2022-12-14T10:35:52.484Z,37.20
2022-12-14T10:41:04.326Z,36.30
2022-12-14T10:46:44.151Z,37.80
2022-12-14T10:51:56.545Z,37.73
2022-12-14T10:56:59.065Z,38.00
2022-12-14T11:02:18.591Z,38.00
2022-12-14T11:07:37.073Z,34.57
2022-12-14T11:12:39.532Z,35.00
2022-12-14T11:17:44.220Z,37.60
2022-12-14T11:22:48.998Z,39.23
2022-12-14T11:27:52.244Z,37.87
2022-12-14T11:32:55.343Z,46.97
2022-12-14T11:38:01.528Z,48.60
2022-12-14T11:43:04.926Z,45.87
2022-12-14T11:48:16.552Z,37.37
2022-12-14T11:53:21.010Z,36.03
2022-12-14T11:58:32.221Z,40.23
2022-12-14T12:03:40.853Z,45.40
2022-12-14T12:08:44.780Z,40.43
2022-12-14T12:13:52.632Z,44.40
2022-12-14T12:19:17.717Z,39.93
2022-12-14T12:25:08.583Z,40.87
2022-12-14T12:30:30.300Z,43.73
2022-12-14T12:35:51.080Z,40.57
2022-12-14T12:41:06.334Z,39.27
2022-12-14T12:46:18.402Z,43.47
2022-12-14T12:51:35.078Z,39.20
2022-12-14T12:56:48.132Z,43.47
2022-12-14T13:01:57.174Z,47.83
2022-12-14T13:07:22.458Z,47.47
2022-12-14T13:12:41.044Z,47.10
2022-12-14T13:17:50.838Z,50.23
2022-12-14T13:22:54.042Z,44.27
2022-12-14T13:27:56.669Z,44.40
2022-12-14T13:33:07.871Z,44.20
2022-12-14T13:38:32.668Z,44.63
2022-12-14T13:44:03.893Z,45.33
2022-12-14T13:49:16.894Z,45.13
2022-12-14T13:54:40.194Z,49.97
2022-12-14T13:59:45.504Z,50.70
2022-12-14T14:04:47.856Z,54.23
2022-12-14T14:09:58.462Z,48.57
2022-12-14T14:15:47.330Z,55.30
2022-12-14T14:21:14.157Z,53.80
2022-12-14T14:26:22.536Z,51.13
2022-12-14T14:32:06.375Z,50.07
2022-12-14T14:37:16.390Z,54.43
2022-12-14T14:42:22.667Z,59.00
2022-12-14T14:47:27.896Z,64.23
2022-12-14T14:52:39.448Z,76.93
2022-12-14T14:57:57.373Z,82.07
2022-12-14T15:03:00.626Z,84.00
2022-12-14T15:08:04.182Z,96.47
2022-12-14T15:13:14.918Z,75.83
2022-12-14T15:18:24.798Z,52.10
2022-12-14T15:23:39.681Z,50.97
2022-12-14T15:28:42.102Z,45.00
2022-12-14T15:33:48.090Z,49.27
2022-12-14T15:38:52.950Z,52.30
2022-12-14T15:43:59.591Z,54.10
2022-12-14T15:49:05.844Z,52.33
2022-12-14T15:54:16.079Z,47.17
2022-12-14T15:59:27.220Z,59.13
2022-12-14T16:04:32.263Z,58.40
2022-12-14T16:09:37.984Z,60.20
2022-12-14T16:14:50.887Z,58.30
2022-12-14T16:20:00.955Z,60.77
2022-12-14T16:25:07.503Z,59.70
2022-12-14T16:30:31.207Z,51.50
2022-12-14T16:35:37.115Z,55.20
2022-12-14T16:40:55.375Z,52.47
2022-12-14T16:46:03.864Z,52.80
2022-12-14T16:51:18.661Z,49.77
2022-12-14T16:56:30.085Z,52.93
2022-12-14T17:01:44.256Z,60.10
2022-12-14T17:06:56.174Z,55.67
2022-12-14T17:12:01.975Z,50.07
2022-12-14T17:17:04.638Z,50.40
2022-12-14T17:22:19.694Z,49.00
2022-12-14T17:27:22.638Z,48.27
2022-12-14T17:32:30.200Z,45.67
2022-12-14T17:37:36.557Z,46.13
2022-12-14T17:42:40.514Z,48.57
2022-12-14T17:47:42.916Z,44.30
2022-12-14T17:52:45.901Z,51.67
2022-12-14T17:57:49.310Z,56.63
2022-12-14T18:02:51.960Z,69.90
2022-12-14T18:07:54.479Z,74.67
2022-12-14T18:12:57.583Z,59.20
2022-12-14T18:18:00.097Z,67.67
2022-12-14T18:23:02.539Z,51.47
2022-12-14T18:28:06.981Z,49.23
2022-12-14T18:33:17.741Z,50.37
2022-12-14T18:38:20.614Z,46.40
2022-12-14T18:43:28.180Z,47.97
2022-12-14T18:48:31.090Z,55.50
2022-12-14T18:53:34.440Z,55.60
2022-12-14T18:58:37.452Z,49.90
2022-12-14T19:03:39.899Z,64.10
2022-12-14T19:08:42.786Z,46.77
2022-12-14T19:13:46.754Z,55.73
2022-12-14T19:18:49.295Z,100.73
2022-12-14T19:23:51.776Z,83.37
2022-12-14T19:28:54.149Z,66.37
2022-12-14T19:33:56.780Z,59.10
2022-12-14T19:38:59.182Z,52.40
2022-12-14T19:44:01.664Z,57.53
2022-12-14T19:49:04.147Z,59.10
2022-12-14T19:54:08.660Z,71.87
2022-12-14T19:59:11.102Z,85.60
2022-12-14T20:04:13.626Z,86.73
2022-12-14T20:09:17.937Z,73.97
2022-12-14T20:14:20.299Z,52.70
2022-12-14T20:19:23.076Z,110.33
2022-12-14T20:24:25.532Z,166.43
2022-12-14T20:29:28.149Z,61.57
2022-12-14T20:34:30.846Z,62.43
2022-12-14T20:39:33.267Z,62.50
2022-12-14T20:44:35.584Z,52.77
2022-12-14T20:49:38.901Z,52.83
2022-12-14T20:54:41.373Z,61.27
2022-12-14T20:59:43.770Z,62.23
2022-12-14T21:04:46.437Z,64.67
2022-12-14T21:09:48.828Z,70.27
2022-12-14T21:14:53.991Z,64.93
2022-12-14T21:19:57.985Z,72.53
2022-12-14T21:25:03.677Z,76.93
2022-12-14T21:30:11.438Z,66.57
2022-12-14T21:35:17.577Z,73.23
2022-12-14T21:40:40.375Z,61.67
2022-12-14T21:45:44.067Z,68.23
2022-12-14T21:50:48.330Z,67.83
2022-12-14T21:55:51.593Z,60.60
2022-12-14T22:00:54.045Z,58.50
2022-12-14T22:05:56.560Z,58.03
2022-12-14T22:11:03.007Z,57.50
2022-12-14T22:16:08.394Z,57.13
2022-12-14T22:21:10.887Z,55.77
2022-12-14T22:26:13.289Z,112.13
2022-12-14T22:31:16.146Z,147.47
2022-12-14T22:36:18.799Z,67.40
2022-12-14T22:41:21.270Z,72.47
2022-12-14T22:46:25.579Z,72.07
2022-12-14T22:51:29.274Z,67.37
2022-12-14T22:56:37.911Z,55.13
2022-12-14T23:01:40.945Z,59.60
2022-12-14T23:06:43.466Z,58.67
2022-12-14T23:12:06.600Z,59.57
2022-12-14T23:17:31.081Z,84.13
2022-12-14T23:22:52.380Z,72.57
2022-12-14T23:28:13.365Z,57.30
2022-12-14T23:33:34.462Z,57.93
2022-12-14T23:38:55.249Z,66.37
2022-12-14T23:44:16.034Z,62.23
2022-12-14T23:49:37.070Z,63.00
2022-12-14T23:54:57.860Z,62.47
